Arlington, Ohio
Current Conditions -  °F | °C
As of 5:53 AM on Friday 19 Dec 2014 (Local Time) from KFDY Reporting Station
Overcast Overcast  
Wind Chill: -7°   Ceiling: 1200
Heat Index: -2°   Visibility: 7mi
Dew Point: -4°   Wind: 10mph
Humidity: 82%   Direction: 280°W
Pressure: 30.22"   Gusts: NA
Location:  40.89°N, 83.65°W
Report Text: KFDY 191053Z AUTO 28009KT 7SM BKN012 OVC021 M02/M04 A3022 RMK AO2 SLP239 T10171044
Loading
Personal Weather Stations






























Interactive Weather Map New forecast layout! Learn more

10-Day Weather Forecast

Advertisements
Track Severe Weather on mobile